createdAt,value
2018-03-27T00:00:03.405Z,7.70
2018-03-27T00:01:10.338Z,7.68
2018-03-27T00:02:17.095Z,7.67
2018-03-27T00:03:23.917Z,7.65
2018-03-27T00:04:30.840Z,7.66
2018-03-27T00:05:37.626Z,7.65
2018-03-27T00:06:44.380Z,7.61
2018-03-27T00:07:51.117Z,7.61
2018-03-27T00:08:57.876Z,7.60
2018-03-27T00:10:04.642Z,7.59
2018-03-27T00:11:11.434Z,7.58
2018-03-27T00:12:18.304Z,7.57
2018-03-27T00:13:25.060Z,7.54
2018-03-27T00:14:31.927Z,7.56
2018-03-27T00:15:38.704Z,7.54
2018-03-27T00:16:45.436Z,7.52
2018-03-27T00:17:52.202Z,7.50
2018-03-27T00:18:58.959Z,7.48
2018-03-27T00:20:05.790Z,7.47
2018-03-27T00:21:12.585Z,7.47
2018-03-27T00:22:19.326Z,7.45
2018-03-27T00:23:26.196Z,7.45
2018-03-27T00:24:32.988Z,7.43
2018-03-27T00:25:40.025Z,7.41
2018-03-27T00:26:46.779Z,7.41
2018-03-27T00:27:53.736Z,7.38
2018-03-27T00:29:00.890Z,7.38
2018-03-27T00:30:08.066Z,7.37
2018-03-27T00:31:15.088Z,7.34
2018-03-27T00:32:22.139Z,7.35
2018-03-27T00:33:29.161Z,7.33
2018-03-27T00:34:36.188Z,7.32
2018-03-27T00:35:43.273Z,7.30
2018-03-27T00:36:50.249Z,7.30
2018-03-27T00:37:57.117Z,7.27
2018-03-27T00:39:04.153Z,7.26
2018-03-27T00:40:10.980Z,7.25
2018-03-27T00:41:17.555Z,7.24
2018-03-27T00:42:24.357Z,7.21
2018-03-27T00:43:31.248Z,7.20
2018-03-27T00:44:38.014Z,7.19
2018-03-27T00:45:44.789Z,7.17
2018-03-27T00:46:51.546Z,7.15
2018-03-27T00:47:58.350Z,7.14
2018-03-27T00:49:05.113Z,7.12
2018-03-27T00:50:11.872Z,7.12
2018-03-27T00:51:18.619Z,7.11
2018-03-27T00:52:25.413Z,7.09
2018-03-27T00:53:32.151Z,7.08
2018-03-27T00:54:38.920Z,7.05
2018-03-27T00:55:45.669Z,7.05
2018-03-27T00:56:52.517Z,7.04
2018-03-27T00:57:59.248Z,7.02
2018-03-27T00:59:06.000Z,7.01
2018-03-27T01:00:12.751Z,6.99
2018-03-27T01:01:19.632Z,6.97
2018-03-27T01:02:26.375Z,6.95
2018-03-27T01:03:33.158Z,6.94
2018-03-27T01:04:39.920Z,6.93
2018-03-27T01:05:46.812Z,6.91
2018-03-27T01:06:53.580Z,6.89
2018-03-27T01:08:00.317Z,6.88
2018-03-27T01:09:07.248Z,6.88
2018-03-27T01:10:14.016Z,6.85
2018-03-27T01:11:20.754Z,6.84
2018-03-27T01:12:27.581Z,6.82
2018-03-27T01:13:34.353Z,6.81
2018-03-27T01:14:41.089Z,6.80
2018-03-27T01:15:47.841Z,6.78
2018-03-27T01:16:54.671Z,6.76
2018-03-27T01:18:01.443Z,6.75
2018-03-27T01:19:08.276Z,6.72
2018-03-27T01:20:15.068Z,6.73
2018-03-27T01:21:21.880Z,6.71
2018-03-27T01:22:28.676Z,6.70
2018-03-27T01:23:35.569Z,6.69
2018-03-27T01:24:42.320Z,6.67
2018-03-27T01:25:49.157Z,6.65
2018-03-27T01:26:55.916Z,6.62
2018-03-27T01:28:02.738Z,6.62
2018-03-27T01:29:09.473Z,6.61
2018-03-27T01:30:16.338Z,6.57
2018-03-27T01:31:23.080Z,6.57
2018-03-27T01:32:29.862Z,6.54
2018-03-27T01:33:36.622Z,6.54
2018-03-27T01:34:43.373Z,6.51
2018-03-27T01:35:50.156Z,6.51
2018-03-27T01:36:56.961Z,6.49
2018-03-27T01:38:03.789Z,6.48
2018-03-27T01:39:10.543Z,6.46
2018-03-27T01:40:17.293Z,6.46
2018-03-27T01:41:24.044Z,6.43
2018-03-27T01:42:30.867Z,6.41
2018-03-27T01:43:37.618Z,6.40
2018-03-27T01:44:44.398Z,6.38
2018-03-27T01:45:51.285Z,6.38
2018-03-27T01:46:58.048Z,6.35
2018-03-27T01:48:04.849Z,6.34
2018-03-27T01:49:11.691Z,6.33
2018-03-27T01:50:18.401Z,6.32
2018-03-27T01:51:25.171Z,6.30
2018-03-27T01:52:31.950Z,6.27
2018-03-27T01:53:38.765Z,6.26
2018-03-27T01:54:45.477Z,6.27
2018-03-27T01:55:52.219Z,6.25
2018-03-27T01:56:58.997Z,6.24
2018-03-27T01:58:05.868Z,6.20
2018-03-27T01:59:12.618Z,6.21
2018-03-27T02:00:19.397Z,6.21
2018-03-27T02:01:26.113Z,6.17
2018-03-27T02:02:32.935Z,6.16
2018-03-27T02:03:39.688Z,6.16
2018-03-27T02:04:46.423Z,6.15
2018-03-27T02:05:53.375Z,6.13
2018-03-27T02:07:00.132Z,6.11
2018-03-27T02:08:06.928Z,6.09
2018-03-27T02:09:13.784Z,6.07
2018-03-27T02:10:20.551Z,6.06
2018-03-27T02:11:27.290Z,6.05
2018-03-27T02:12:34.011Z,6.04
2018-03-27T02:13:41.002Z,6.00
2018-03-27T02:14:47.724Z,6.00
2018-03-27T02:15:54.768Z,5.98
2018-03-27T02:17:01.758Z,5.97
2018-03-27T02:18:08.731Z,5.95
2018-03-27T02:19:15.835Z,5.94
2018-03-27T02:20:22.683Z,5.93
2018-03-27T02:21:29.464Z,5.92
2018-03-27T02:22:36.233Z,5.90
2018-03-27T02:23:43.161Z,5.88
2018-03-27T02:24:50.113Z,5.85
2018-03-27T02:25:56.908Z,5.85
2018-03-27T02:27:03.672Z,5.84
2018-03-27T02:28:10.432Z,5.83
2018-03-27T02:29:17.196Z,5.82
2018-03-27T02:30:23.961Z,5.79
2018-03-27T02:31:30.710Z,5.79
2018-03-27T02:32:37.485Z,5.77
2018-03-27T02:33:44.264Z,5.77
2018-03-27T02:34:51.096Z,5.76
2018-03-27T02:35:57.834Z,5.75
2018-03-27T02:37:04.557Z,5.73
2018-03-27T02:38:11.309Z,5.71
2018-03-27T02:39:18.145Z,5.72
2018-03-27T02:40:24.898Z,5.70
2018-03-27T02:41:31.666Z,5.68
2018-03-27T02:42:38.412Z,5.68
2018-03-27T02:43:45.222Z,5.66
2018-03-27T02:44:52.002Z,5.64
2018-03-27T02:45:58.757Z,5.63
2018-03-27T02:47:05.668Z,5.62
2018-03-27T02:48:12.431Z,5.60
2018-03-27T02:49:19.233Z,5.58
2018-03-27T02:50:25.974Z,5.57
2018-03-27T02:51:32.757Z,5.57
2018-03-27T02:52:39.553Z,5.55
2018-03-27T02:53:46.334Z,5.53
2018-03-27T02:54:53.235Z,5.51
2018-03-27T02:55:59.989Z,5.50
2018-03-27T02:57:06.798Z,5.49
2018-03-27T02:58:13.638Z,5.48
2018-03-27T02:59:20.420Z,5.48
2018-03-27T03:00:27.206Z,5.46
2018-03-27T03:01:33.944Z,5.44
2018-03-27T03:02:40.745Z,5.43
2018-03-27T03:03:47.490Z,5.43
2018-03-27T03:04:54.295Z,5.41
2018-03-27T03:06:01.158Z,5.41
2018-03-27T03:07:07.892Z,5.40
2018-03-27T03:08:14.678Z,5.38
2018-03-27T03:09:21.440Z,5.37
2018-03-27T03:10:28.241Z,5.36
2018-03-27T03:11:35.017Z,5.35
2018-03-27T03:12:41.792Z,5.34
2018-03-27T03:13:48.650Z,5.33
2018-03-27T03:14:55.403Z,5.31
2018-03-27T03:16:02.168Z,5.31
2018-03-27T03:17:08.975Z,5.29
2018-03-27T03:18:15.724Z,5.29
2018-03-27T03:19:22.478Z,5.26
2018-03-27T03:20:29.258Z,5.25
2018-03-27T03:21:36.005Z,5.25
2018-03-27T03:22:42.806Z,5.23
2018-03-27T03:23:49.512Z,5.22
2018-03-27T03:24:56.397Z,5.20
2018-03-27T03:26:03.269Z,5.19
2018-03-27T03:27:10.020Z,5.19
2018-03-27T03:28:16.814Z,5.17
2018-03-27T03:29:23.656Z,5.17
2018-03-27T03:30:30.374Z,5.14
2018-03-27T03:31:37.149Z,5.14
2018-03-27T03:32:44.061Z,5.13
2018-03-27T03:33:50.780Z,5.12
2018-03-27T03:34:57.545Z,5.09
2018-03-27T03:36:04.296Z,5.09
2018-03-27T03:37:11.126Z,5.09
2018-03-27T03:38:17.937Z,5.07
2018-03-27T03:39:24.931Z,5.08
2018-03-27T03:40:31.686Z,5.05
2018-03-27T03:41:38.505Z,5.04
2018-03-27T03:42:45.354Z,5.04
2018-03-27T03:43:52.098Z,5.02
2018-03-27T03:44:58.902Z,5.02
2018-03-27T03:46:05.937Z,5.01
2018-03-27T03:47:12.949Z,5.00
2018-03-27T03:48:19.812Z,4.98
2018-03-27T03:49:26.596Z,4.96
2018-03-27T03:50:33.342Z,4.98
2018-03-27T03:51:40.291Z,4.96
2018-03-27T03:52:47.175Z,4.95
2018-03-27T03:53:54.268Z,4.92
2018-03-27T03:55:01.154Z,4.92
2018-03-27T03:56:08.006Z,4.90
2018-03-27T03:57:14.949Z,4.92
2018-03-27T03:58:21.844Z,4.90
2018-03-27T03:59:28.669Z,4.87
2018-03-27T04:00:35.530Z,4.87
2018-03-27T04:01:42.240Z,4.86
2018-03-27T04:02:49.005Z,4.85
2018-03-27T04:03:55.766Z,4.85
2018-03-27T04:05:02.518Z,4.82
2018-03-27T04:06:09.300Z,4.83
2018-03-27T04:07:16.054Z,4.81
2018-03-27T04:08:22.793Z,4.81
2018-03-27T04:09:29.718Z,4.79
2018-03-27T04:10:36.453Z,4.79
2018-03-27T04:11:43.206Z,4.78
2018-03-27T04:12:49.966Z,4.75
2018-03-27T04:13:56.784Z,4.77
2018-03-27T04:15:03.596Z,4.74
2018-03-27T04:16:10.333Z,4.75
2018-03-27T04:17:17.061Z,4.73
2018-03-27T04:18:23.873Z,4.73
2018-03-27T04:19:30.603Z,4.71
2018-03-27T04:20:37.365Z,4.71
2018-03-27T04:21:44.109Z,4.70
2018-03-27T04:22:50.896Z,4.69
2018-03-27T04:23:57.637Z,4.70
2018-03-27T04:25:04.444Z,4.67
2018-03-27T04:26:11.320Z,4.66
2018-03-27T04:27:18.166Z,4.66
2018-03-27T04:28:25.040Z,4.64
2018-03-27T04:29:31.769Z,4.66
2018-03-27T04:30:38.503Z,4.64
2018-03-27T04:31:45.225Z,4.64
2018-03-27T04:32:51.983Z,4.63
2018-03-27T04:33:58.796Z,4.63
2018-03-27T04:35:05.545Z,4.61
2018-03-27T04:36:12.305Z,4.61
2018-03-27T04:37:19.017Z,4.61
2018-03-27T04:38:25.865Z,4.59
2018-03-27T04:39:32.617Z,4.58
2018-03-27T04:40:39.402Z,4.59
2018-03-27T04:41:46.324Z,4.58
2018-03-27T04:42:53.081Z,4.57
2018-03-27T04:43:59.842Z,4.55
2018-03-27T04:45:06.664Z,4.54
2018-03-27T04:46:13.432Z,4.54
2018-03-27T04:47:20.184Z,4.53
2018-03-27T04:48:26.934Z,4.53
2018-03-27T04:49:33.726Z,4.53
2018-03-27T04:50:40.468Z,4.53
2018-03-27T04:51:47.244Z,4.51
2018-03-27T04:52:53.980Z,4.51
2018-03-27T04:54:00.808Z,4.50
2018-03-27T04:55:07.570Z,4.51
2018-03-27T04:56:14.302Z,4.48
2018-03-27T04:57:21.065Z,4.49
2018-03-27T04:58:27.890Z,4.48
2018-03-27T04:59:34.632Z,4.48
2018-03-27T05:00:41.459Z,4.46
2018-03-27T05:01:48.284Z,4.46
2018-03-27T05:02:55.077Z,4.46
2018-03-27T05:04:01.910Z,4.45
2018-03-27T05:05:08.722Z,4.45
2018-03-27T05:06:15.500Z,4.44
2018-03-27T05:07:22.298Z,4.43
2018-03-27T05:08:29.137Z,4.44
2018-03-27T05:09:35.900Z,4.43
2018-03-27T05:10:42.665Z,4.41
2018-03-27T05:11:49.399Z,4.41
2018-03-27T05:12:56.223Z,4.40
2018-03-27T05:14:02.974Z,4.40
2018-03-27T05:15:09.907Z,4.38
2018-03-27T05:16:16.653Z,4.39
2018-03-27T05:17:23.397Z,4.40
2018-03-27T05:18:30.177Z,4.39
2018-03-27T05:19:36.919Z,4.37
2018-03-27T05:20:43.769Z,4.38
2018-03-27T05:21:50.865Z,4.38
2018-03-27T05:22:57.592Z,4.36
2018-03-27T05:24:04.360Z,4.38
2018-03-27T05:25:11.136Z,4.35
2018-03-27T05:26:17.925Z,4.36
2018-03-27T05:27:24.676Z,4.36
2018-03-27T05:28:31.477Z,4.35
2018-03-27T05:29:38.284Z,4.32
2018-03-27T05:30:45.081Z,4.33
2018-03-27T05:31:51.865Z,4.33
2018-03-27T05:32:58.676Z,4.32
2018-03-27T05:34:05.512Z,4.32
2018-03-27T05:35:12.276Z,4.31
2018-03-27T05:36:19.070Z,4.30
2018-03-27T05:37:25.836Z,4.30
2018-03-27T05:38:32.580Z,4.29
2018-03-27T05:39:39.329Z,4.30
2018-03-27T05:40:46.155Z,4.28
2018-03-27T05:41:52.884Z,4.28
2018-03-27T05:42:59.642Z,4.28
2018-03-27T05:44:06.482Z,4.28
2018-03-27T05:45:13.218Z,4.26
2018-03-27T05:46:20.001Z,4.27
2018-03-27T05:47:26.752Z,4.27
2018-03-27T05:48:33.489Z,4.28
2018-03-27T05:49:40.291Z,4.26
2018-03-27T05:50:47.181Z,4.26
2018-03-27T05:51:54.061Z,4.26
2018-03-27T05:53:00.864Z,4.25
2018-03-27T05:54:07.620Z,4.24
2018-03-27T05:55:14.383Z,4.24
2018-03-27T05:56:21.167Z,4.24
2018-03-27T05:57:27.907Z,4.23
2018-03-27T05:58:34.644Z,4.21
2018-03-27T05:59:41.393Z,4.21
2018-03-27T06:00:48.204Z,4.20
2018-03-27T06:01:54.936Z,4.20
2018-03-27T06:03:01.747Z,4.21
2018-03-27T06:04:08.633Z,4.20
2018-03-27T06:05:15.367Z,4.20
2018-03-27T06:06:22.113Z,4.20
2018-03-27T06:07:28.887Z,4.18
2018-03-27T06:08:35.809Z,4.19
2018-03-27T06:09:42.548Z,4.18
2018-03-27T06:10:49.315Z,4.18
2018-03-27T06:11:56.136Z,4.18
2018-03-27T06:13:02.893Z,4.17
2018-03-27T06:14:09.721Z,4.17
2018-03-27T06:15:16.532Z,4.17
2018-03-27T06:16:23.506Z,4.17
2018-03-27T06:17:30.330Z,4.17
2018-03-27T06:18:37.153Z,4.17
2018-03-27T06:19:44.176Z,4.16
2018-03-27T06:20:50.963Z,4.16
2018-03-27T06:21:57.712Z,4.15
2018-03-27T06:23:04.548Z,4.14
2018-03-27T06:24:11.272Z,4.15
2018-03-27T06:25:18.016Z,4.14
2018-03-27T06:26:24.745Z,4.14
2018-03-27T06:27:31.617Z,4.13
2018-03-27T06:28:38.364Z,4.13
2018-03-27T06:29:45.116Z,4.14
2018-03-27T06:30:51.841Z,4.14
2018-03-27T06:31:58.656Z,4.13
2018-03-27T06:33:05.401Z,4.14
2018-03-27T06:34:12.153Z,4.12
2018-03-27T06:35:18.893Z,4.12
2018-03-27T06:36:25.711Z,4.13
2018-03-27T06:37:32.474Z,4.13
2018-03-27T06:38:39.231Z,4.12
2018-03-27T06:39:45.956Z,4.13
2018-03-27T06:40:52.768Z,4.11
2018-03-27T06:41:59.477Z,4.12
2018-03-27T06:43:06.224Z,4.12
2018-03-27T06:44:12.961Z,4.13
2018-03-27T06:45:19.712Z,4.11
2018-03-27T06:46:26.456Z,4.12
2018-03-27T06:47:33.221Z,4.12
2018-03-27T06:48:40.018Z,4.11
2018-03-27T06:49:46.885Z,4.10
2018-03-27T06:50:53.608Z,4.11
2018-03-27T06:52:00.365Z,4.12
2018-03-27T06:53:07.100Z,4.11
2018-03-27T06:54:13.837Z,4.11
2018-03-27T06:55:20.612Z,4.11
2018-03-27T06:56:27.362Z,4.09
2018-03-27T06:57:34.188Z,4.10
2018-03-27T06:58:41.000Z,4.11
2018-03-27T06:59:47.768Z,4.10
2018-03-27T07:00:54.529Z,4.11
2018-03-27T07:02:01.249Z,4.10
2018-03-27T07:03:08.103Z,4.10
2018-03-27T07:04:14.841Z,4.10
2018-03-27T07:05:21.643Z,4.10
2018-03-27T07:06:28.358Z,4.10
2018-03-27T07:07:35.129Z,4.11
2018-03-27T07:08:41.849Z,4.10
2018-03-27T07:09:48.618Z,4.12
2018-03-27T07:10:55.380Z,4.12
2018-03-27T07:12:02.229Z,4.11
2018-03-27T07:13:09.008Z,4.12
2018-03-27T07:14:15.780Z,4.11
2018-03-27T07:15:22.926Z,4.11
2018-03-27T07:16:29.680Z,4.11
2018-03-27T07:17:36.424Z,4.12
2018-03-27T07:18:43.143Z,4.13
2018-03-27T07:19:49.926Z,4.12
2018-03-27T07:20:56.724Z,4.14
2018-03-27T07:22:03.486Z,4.13
2018-03-27T07:23:10.192Z,4.13
2018-03-27T07:24:16.942Z,4.13
2018-03-27T07:25:23.713Z,4.15
2018-03-27T07:26:30.568Z,4.15
2018-03-27T07:27:37.305Z,4.14
2018-03-27T07:28:44.079Z,4.16
2018-03-27T07:29:50.808Z,4.15
2018-03-27T07:30:57.645Z,4.18
2018-03-27T07:32:04.388Z,4.16
2018-03-27T07:33:11.104Z,4.18
2018-03-27T07:34:17.845Z,4.19
2018-03-27T07:35:24.797Z,4.18
2018-03-27T07:36:31.566Z,4.17
2018-03-27T07:37:38.318Z,4.19
2018-03-27T07:38:45.080Z,4.20
2018-03-27T07:39:51.788Z,4.20
2018-03-27T07:40:58.557Z,4.21
2018-03-27T07:42:05.296Z,4.23
2018-03-27T07:43:12.144Z,4.26
2018-03-27T07:44:18.873Z,4.25
2018-03-27T07:45:25.608Z,4.27
2018-03-27T07:46:32.381Z,4.27
2018-03-27T07:47:39.181Z,4.28
2018-03-27T07:48:45.900Z,4.29
2018-03-27T07:49:52.701Z,4.29
2018-03-27T07:50:59.446Z,4.31
2018-03-27T07:52:06.228Z,4.31
2018-03-27T07:53:12.994Z,4.33
2018-03-27T07:54:19.732Z,4.33
2018-03-27T07:55:26.456Z,4.33
2018-03-27T07:56:33.300Z,4.35
2018-03-27T07:57:40.028Z,4.36
2018-03-27T07:58:46.791Z,4.38
2018-03-27T07:59:53.537Z,4.38
2018-03-27T08:01:00.412Z,4.40
2018-03-27T08:02:07.283Z,4.41
2018-03-27T08:03:14.003Z,4.41
2018-03-27T08:04:20.790Z,4.44
2018-03-27T08:05:27.507Z,4.44
2018-03-27T08:06:34.256Z,4.45
2018-03-27T08:07:41.137Z,4.47
2018-03-27T08:08:47.868Z,4.48
2018-03-27T08:09:54.609Z,4.50
2018-03-27T08:11:01.689Z,4.52
2018-03-27T08:12:08.390Z,4.53
2018-03-27T08:13:15.127Z,4.53
2018-03-27T08:14:21.861Z,4.57
2018-03-27T08:15:28.684Z,4.58
2018-03-27T08:16:35.427Z,4.59
2018-03-27T08:17:42.221Z,4.63
2018-03-27T08:18:48.965Z,4.63
2018-03-27T08:19:55.732Z,4.65
2018-03-27T08:21:02.568Z,4.66
2018-03-27T08:22:09.327Z,4.69
2018-03-27T08:23:16.170Z,4.71
2018-03-27T08:24:23.007Z,4.73
2018-03-27T08:25:29.737Z,4.74
2018-03-27T08:26:36.593Z,4.77
2018-03-27T08:27:43.341Z,4.79
2018-03-27T08:28:50.163Z,4.80
2018-03-27T08:29:56.999Z,4.83
2018-03-27T08:31:03.731Z,4.86
2018-03-27T08:32:10.450Z,4.88
2018-03-27T08:33:17.225Z,4.90
2018-03-27T08:34:24.140Z,4.93
2018-03-27T08:35:30.876Z,4.95
2018-03-27T08:36:37.621Z,4.96
2018-03-27T08:37:44.457Z,4.97
2018-03-27T08:38:51.227Z,5.00
2018-03-27T08:39:58.011Z,5.02
2018-03-27T08:41:04.861Z,5.05
2018-03-27T08:42:11.596Z,5.06
2018-03-27T08:43:18.438Z,5.10
2018-03-27T08:44:25.112Z,5.11
2018-03-27T08:45:31.928Z,5.14
2018-03-27T08:46:38.692Z,5.16
2018-03-27T08:47:45.411Z,5.19
2018-03-27T08:48:52.188Z,5.20
2018-03-27T08:49:58.974Z,5.22
2018-03-27T08:51:05.772Z,5.27
2018-03-27T08:52:12.542Z,5.29
2018-03-27T08:53:19.632Z,5.31
2018-03-27T08:54:26.397Z,5.33
2018-03-27T08:55:33.189Z,5.36
2018-03-27T08:56:39.929Z,5.40
2018-03-27T08:57:46.687Z,5.40
2018-03-27T08:58:53.456Z,5.44
2018-03-27T09:00:00.230Z,5.46
2018-03-27T09:01:07.110Z,5.49
2018-03-27T09:02:13.841Z,5.50
2018-03-27T09:03:20.657Z,5.51
2018-03-27T09:04:27.414Z,5.55
2018-03-27T09:05:34.179Z,5.56
2018-03-27T09:06:40.913Z,5.60
2018-03-27T09:07:47.705Z,5.62
2018-03-27T09:08:54.443Z,5.65
2018-03-27T09:10:01.267Z,5.68
2018-03-27T09:11:08.152Z,5.69
2018-03-27T09:12:14.897Z,5.72
2018-03-27T09:13:21.664Z,5.75
2018-03-27T09:14:28.420Z,5.78
2018-03-27T09:15:35.324Z,5.81
2018-03-27T09:16:42.068Z,5.83
2018-03-27T09:17:48.833Z,5.86
2018-03-27T09:18:55.662Z,5.89
2018-03-27T09:20:02.420Z,5.92
2018-03-27T09:21:09.201Z,5.95
2018-03-27T09:22:15.914Z,5.97
2018-03-27T09:23:22.799Z,6.00
2018-03-27T09:24:29.552Z,6.04
2018-03-27T09:25:36.310Z,6.06
2018-03-27T09:26:43.039Z,6.09
2018-03-27T09:27:49.929Z,6.13
2018-03-27T09:28:56.672Z,6.16
2018-03-27T09:30:03.453Z,6.17
2018-03-27T09:31:10.243Z,6.21
2018-03-27T09:32:16.994Z,6.25
2018-03-27T09:33:23.770Z,6.28
2018-03-27T09:34:30.501Z,6.30
2018-03-27T09:35:37.348Z,6.34
2018-03-27T09:36:44.164Z,6.38
2018-03-27T09:37:50.889Z,6.42
2018-03-27T09:38:57.607Z,6.45
2018-03-27T09:40:04.435Z,6.48
2018-03-27T09:41:11.204Z,6.52
2018-03-27T09:42:17.974Z,6.57
2018-03-27T09:43:24.734Z,6.59
2018-03-27T09:44:31.494Z,6.64
2018-03-27T09:45:38.282Z,6.66
2018-03-27T09:46:45.040Z,6.71
2018-03-27T09:47:57.001Z,6.76
2018-03-27T09:49:04.022Z,6.80
2018-03-27T09:50:10.973Z,6.82
2018-03-27T09:51:12.717Z,6.88
2018-03-27T09:52:19.498Z,6.91
2018-03-27T09:53:26.235Z,6.96
2018-03-27T09:54:32.982Z,7.00
2018-03-27T09:55:39.748Z,7.05
2018-03-27T09:56:46.564Z,7.09
2018-03-27T09:57:53.321Z,7.14
2018-03-27T09:59:00.107Z,7.17
2018-03-27T10:00:06.856Z,7.20
2018-03-27T10:01:13.660Z,7.27
2018-03-27T10:02:20.469Z,7.31
2018-03-27T10:03:27.219Z,7.35
2018-03-27T10:04:33.938Z,7.38
2018-03-27T10:05:40.728Z,7.43
2018-03-27T10:06:47.486Z,7.48
2018-03-27T10:07:54.232Z,7.52
2018-03-27T10:09:01.118Z,7.56
2018-03-27T10:10:08.001Z,7.59
2018-03-27T10:11:14.762Z,7.63
2018-03-27T10:12:21.517Z,7.69
2018-03-27T10:13:28.256Z,7.72
2018-03-27T10:14:34.998Z,7.76
2018-03-27T10:15:41.730Z,7.79
2018-03-27T10:16:48.557Z,7.85
2018-03-27T10:17:55.425Z,7.89
2018-03-27T10:19:02.173Z,7.93
2018-03-27T10:20:08.926Z,7.97
2018-03-27T10:21:15.710Z,8.02
2018-03-27T10:22:22.498Z,8.05
2018-03-27T10:23:29.293Z,8.07
2018-03-27T10:24:36.036Z,8.11
2018-03-27T10:25:42.785Z,8.15
2018-03-27T10:26:49.745Z,8.17
2018-03-27T10:27:56.528Z,8.20
2018-03-27T10:29:03.285Z,8.23
2018-03-27T10:30:10.105Z,8.27
2018-03-27T10:31:16.848Z,8.30
2018-03-27T10:32:23.601Z,8.33
2018-03-27T10:33:30.369Z,8.36
2018-03-27T10:34:37.170Z,8.38
2018-03-27T10:35:43.897Z,8.41
2018-03-27T10:36:50.685Z,8.44
2018-03-27T10:37:57.444Z,8.47
2018-03-27T10:39:04.192Z,8.51
2018-03-27T10:40:10.977Z,8.54
2018-03-27T10:41:17.767Z,8.56
2018-03-27T10:42:24.517Z,8.58
2018-03-27T10:43:31.260Z,8.60
2018-03-27T10:44:38.003Z,8.63
2018-03-27T10:45:44.776Z,8.67
2018-03-27T10:46:51.610Z,8.68
2018-03-27T10:47:58.387Z,8.71
2018-03-27T10:49:05.142Z,8.74
2018-03-27T10:50:11.897Z,8.75
2018-03-27T10:51:18.695Z,8.78
2018-03-27T10:52:25.444Z,8.80
2018-03-27T10:53:32.189Z,8.81
2018-03-27T10:54:38.998Z,8.82
2018-03-27T10:55:45.761Z,8.87
2018-03-27T10:56:52.506Z,8.87
2018-03-27T10:57:59.253Z,8.90
2018-03-27T10:59:05.993Z,8.92
2018-03-27T11:00:12.801Z,8.94
2018-03-27T11:01:19.569Z,8.97
2018-03-27T11:02:26.297Z,8.98
2018-03-27T11:03:33.086Z,8.99
2018-03-27T11:04:40.124Z,9.01
2018-03-27T11:05:46.958Z,9.05
2018-03-27T11:06:53.689Z,9.06
2018-03-27T11:08:00.468Z,9.08
2018-03-27T11:09:07.258Z,9.09
2018-03-27T11:10:14.161Z,9.10
2018-03-27T11:11:20.910Z,9.13
2018-03-27T11:12:27.641Z,9.13
2018-03-27T11:13:34.505Z,9.15
2018-03-27T11:14:41.257Z,9.17
2018-03-27T11:15:48.005Z,9.19
2018-03-27T11:16:54.768Z,9.20
2018-03-27T11:18:01.545Z,9.21
2018-03-27T11:19:08.557Z,9.21
2018-03-27T11:20:15.333Z,9.23
2018-03-27T11:21:22.114Z,9.23
2018-03-27T11:22:28.844Z,9.26
2018-03-27T11:23:35.591Z,9.26
2018-03-27T11:24:42.420Z,9.27
2018-03-27T11:25:49.177Z,9.29
2018-03-27T11:26:55.961Z,9.30
2018-03-27T11:28:02.822Z,9.30
2018-03-27T11:29:09.606Z,9.32
2018-03-27T11:30:16.391Z,9.33
2018-03-27T11:31:23.126Z,9.33
2018-03-27T11:32:29.888Z,9.35
2018-03-27T11:33:36.609Z,9.35
2018-03-27T11:34:43.399Z,9.36
2018-03-27T11:35:50.149Z,9.37
2018-03-27T11:36:56.949Z,9.37
2018-03-27T11:38:03.669Z,9.37
2018-03-27T11:39:10.513Z,9.38
2018-03-27T11:40:17.266Z,9.38
2018-03-27T11:41:24.014Z,9.40
2018-03-27T11:42:30.797Z,9.39
2018-03-27T11:43:37.573Z,9.41
2018-03-27T11:44:44.296Z,9.41
2018-03-27T11:45:51.097Z,9.42
2018-03-27T11:46:57.841Z,9.43
2018-03-27T11:48:04.634Z,9.44
2018-03-27T11:49:11.362Z,9.43
2018-03-27T11:50:18.149Z,9.46
2018-03-27T11:51:24.886Z,9.44
2018-03-27T11:52:31.628Z,9.45
2018-03-27T11:53:38.389Z,9.46
2018-03-27T11:54:45.180Z,9.49
2018-03-27T11:55:51.989Z,9.47
2018-03-27T11:56:58.861Z,9.48
2018-03-27T11:58:05.620Z,9.48
2018-03-27T11:59:12.351Z,9.50
2018-03-27T12:00:19.156Z,9.50
2018-03-27T12:01:25.872Z,9.51
2018-03-27T12:02:32.713Z,9.51
2018-03-27T12:03:39.462Z,9.50
2018-03-27T12:04:46.226Z,9.52
2018-03-27T12:05:52.999Z,9.53
2018-03-27T12:06:59.785Z,9.52
2018-03-27T12:08:06.544Z,9.52
2018-03-27T12:09:13.297Z,9.52
2018-03-27T12:10:20.049Z,9.52
2018-03-27T12:11:26.866Z,9.53
2018-03-27T12:12:33.584Z,9.52
2018-03-27T12:13:40.314Z,9.54
2018-03-27T12:14:47.079Z,9.53
2018-03-27T12:15:53.831Z,9.52
2018-03-27T12:17:00.624Z,9.54
2018-03-27T12:18:07.436Z,9.54
2018-03-27T12:19:14.193Z,9.54
2018-03-27T12:20:21.047Z,9.54
2018-03-27T12:21:27.808Z,9.54
2018-03-27T12:22:34.548Z,9.54
2018-03-27T12:23:41.316Z,9.55
2018-03-27T12:24:48.154Z,9.55
2018-03-27T12:25:54.885Z,9.54
2018-03-27T12:27:01.710Z,9.55
2018-03-27T12:28:08.672Z,9.54
2018-03-27T12:29:15.384Z,9.52
2018-03-27T12:30:22.132Z,9.55
2018-03-27T12:31:28.890Z,9.53
2018-03-27T12:32:35.769Z,9.53
2018-03-27T12:33:42.528Z,9.54
2018-03-27T12:34:49.270Z,9.53
2018-03-27T12:35:56.118Z,9.53
2018-03-27T12:37:02.962Z,9.55
2018-03-27T12:38:09.728Z,9.54
2018-03-27T12:39:16.561Z,9.55
2018-03-27T12:40:23.296Z,9.55
2018-03-27T12:41:30.036Z,9.53
2018-03-27T12:42:36.855Z,9.52
2018-03-27T12:43:43.657Z,9.53
2018-03-27T12:44:50.377Z,9.54
2018-03-27T12:45:57.130Z,9.53
2018-03-27T12:47:03.923Z,9.54
2018-03-27T12:48:10.749Z,9.53
2018-03-27T12:49:17.613Z,9.53
2018-03-27T12:50:24.337Z,9.52
2018-03-27T12:51:31.190Z,9.52
2018-03-27T12:52:37.988Z,9.53
2018-03-27T12:53:44.749Z,9.51
2018-03-27T12:54:51.486Z,9.52
2018-03-27T12:55:58.293Z,9.51
2018-03-27T12:57:05.049Z,9.52
2018-03-27T12:58:11.817Z,9.52
2018-03-27T12:59:18.544Z,9.52
2018-03-27T13:00:25.346Z,9.52
2018-03-27T13:01:32.108Z,9.52
2018-03-27T13:02:38.868Z,9.51
2018-03-27T13:03:45.591Z,9.50
2018-03-27T13:04:52.432Z,9.51
2018-03-27T13:05:59.163Z,9.50
2018-03-27T13:07:05.916Z,9.51
2018-03-27T13:08:12.681Z,9.50
2018-03-27T13:09:19.518Z,9.50
2018-03-27T13:10:26.289Z,9.50
2018-03-27T13:11:33.029Z,9.50
2018-03-27T13:12:39.798Z,9.51
2018-03-27T13:13:46.601Z,9.49
2018-03-27T13:14:53.328Z,9.49
2018-03-27T13:16:00.165Z,9.49
2018-03-27T13:17:07.065Z,9.50
2018-03-27T13:18:13.845Z,9.49
2018-03-27T13:19:20.621Z,9.49
2018-03-27T13:20:27.572Z,9.47
2018-03-27T13:21:34.402Z,9.48
2018-03-27T13:22:41.237Z,9.47
2018-03-27T13:23:48.168Z,9.48
2018-03-27T13:24:55.046Z,9.45
2018-03-27T13:26:01.786Z,9.47
2018-03-27T13:27:08.627Z,9.46
2018-03-27T13:28:15.404Z,9.46
2018-03-27T13:29:22.189Z,9.46
2018-03-27T13:30:29.008Z,9.45
2018-03-27T13:31:35.762Z,9.46
2018-03-27T13:32:42.628Z,9.47
2018-03-27T13:33:49.409Z,9.43
2018-03-27T13:34:56.175Z,9.45
2018-03-27T13:36:02.978Z,9.43
2018-03-27T13:37:09.817Z,9.45
2018-03-27T13:38:16.582Z,9.43
2018-03-27T13:39:23.388Z,9.43
2018-03-27T13:40:30.185Z,9.41
2018-03-27T13:41:36.974Z,9.43
2018-03-27T13:42:43.752Z,9.42
2018-03-27T13:43:50.719Z,9.43
2018-03-27T13:44:57.506Z,9.42
2018-03-27T13:46:04.348Z,9.41
2018-03-27T13:47:11.113Z,9.41
2018-03-27T13:48:17.870Z,9.40
2018-03-27T13:49:24.670Z,9.42
2018-03-27T13:50:31.469Z,9.41
2018-03-27T13:51:38.344Z,9.40
2018-03-27T13:52:45.140Z,9.39
2018-03-27T13:53:51.973Z,9.40
2018-03-27T13:54:58.853Z,9.39
2018-03-27T13:56:05.744Z,9.39
2018-03-27T13:57:12.535Z,9.38
2018-03-27T13:58:19.301Z,9.38
2018-03-27T13:59:26.061Z,9.39
2018-03-27T14:00:32.861Z,9.39
2018-03-27T14:01:39.594Z,9.38
2018-03-27T14:02:46.325Z,9.39
2018-03-27T14:03:53.154Z,9.38
2018-03-27T14:04:59.929Z,9.39
2018-03-27T14:06:06.722Z,9.37
2018-03-27T14:07:13.559Z,9.38
2018-03-27T14:08:20.314Z,9.36
2018-03-27T14:09:27.105Z,9.37
2018-03-27T14:10:33.889Z,9.37
2018-03-27T14:11:40.662Z,9.38
2018-03-27T14:12:47.436Z,9.37
2018-03-27T14:13:54.245Z,9.37
2018-03-27T14:15:01.105Z,9.37
2018-03-27T14:16:07.922Z,9.36
2018-03-27T14:17:14.684Z,9.37
2018-03-27T14:18:21.735Z,9.37
2018-03-27T14:19:28.616Z,9.37
2018-03-27T14:20:35.360Z,9.37
2018-03-27T14:21:42.243Z,9.36
2018-03-27T14:22:49.072Z,9.37
2018-03-27T14:23:55.870Z,9.36
2018-03-27T14:25:02.613Z,9.36
2018-03-27T14:26:09.617Z,9.36
2018-03-27T14:27:16.397Z,9.35
2018-03-27T14:28:23.290Z,9.36
2018-03-27T14:29:30.079Z,9.35
2018-03-27T14:30:36.865Z,9.35
2018-03-27T14:31:43.631Z,9.35
2018-03-27T14:32:50.374Z,9.35
2018-03-27T14:33:57.146Z,9.34
2018-03-27T14:35:03.936Z,9.34
2018-03-27T14:36:10.809Z,9.34
2018-03-27T14:37:17.715Z,9.34
2018-03-27T14:38:24.457Z,9.33
2018-03-27T14:39:31.244Z,9.33
2018-03-27T14:40:38.008Z,9.33
2018-03-27T14:41:44.837Z,9.33
2018-03-27T14:42:51.573Z,9.33
2018-03-27T14:43:58.338Z,9.31
2018-03-27T14:45:05.075Z,9.31
2018-03-27T14:46:11.868Z,9.32
2018-03-27T14:47:18.666Z,9.32
2018-03-27T14:48:25.498Z,9.31